IAN127 DNPO-DNAA
Flight info
| Callsign | IAN127 |
|---|---|
| Flight time | 0h 44m |
| Altitude | 27000 |
| Route | ETVUN1S ETVUN H206 APVOT UH206 ENG UJ707 ULSIX J707 AMTIR UJ707 NANUV NANUV1N |
| Aircraft | CRJ7/M-SDFGIRWY/S |
Departure
| Time | 2026-05-08 15:18 |
|---|---|
| Airport | Port Harcourt International Airport (DNPO) |
Arrival
| Time | 2026-05-08 16:02 |
|---|---|
| Airport | Nnamdi Azikiwe International Airport (DNAA) |
| Time | Latitude | Longitude | Altitude | Speed | Heading |
|---|---|---|---|---|---|
| 2026-05-08 15:08 | 5.00732 | 6.94896 | 58 ft | 0 kts | 205° |
| 2026-05-08 15:11 | 5.00732 | 6.94897 | 58 ft | 0 kts | 205° |
| 2026-05-08 15:12 | 5.00732 | 6.94896 | 58 ft | 0 kts | 205° |
| 2026-05-08 15:12 | 5.00732 | 6.94897 | 58 ft | 0 kts | 205° |
| 2026-05-08 15:15 | 5.00730 | 6.94895 | 58 ft | 2 kts | 205° |
| 2026-05-08 15:15 | 5.00701 | 6.94878 | 61 ft | 9 kts | 226° |
| 2026-05-08 15:15 | 5.00708 | 6.94789 | 61 ft | 18 kts | 301° |
| 2026-05-08 15:16 | 5.00666 | 6.94712 | 60 ft | 16 kts | 206° |
| 2026-05-08 15:16 | 5.00556 | 6.94653 | 58 ft | 19 kts | 208° |
| 2026-05-08 15:16 | 5.00427 | 6.94584 | 58 ft | 22 kts | 208° |
| 2026-05-08 15:16 | 5.00303 | 6.94511 | 60 ft | 16 kts | 234° |
| 2026-05-08 15:17 | 5.00317 | 6.94406 | 57 ft | 17 kts | 294° |
| 2026-05-08 15:17 | 5.00399 | 6.94349 | 55 ft | 15 kts | 14° |
| 2026-05-08 15:17 | 5.00447 | 6.94372 | 60 ft | 0 kts | 26° |
| 2026-05-08 15:18 | 5.00491 | 6.94396 | 56 ft | 33 kts | 28° |
| 2026-05-08 15:18 | 5.00985 | 6.94658 | 61 ft | 126 kts | 26° |
| 2026-05-08 15:18 | 5.01966 | 6.95198 | 254 ft | 183 kts | 30° |
| 2026-05-08 15:18 | 5.03159 | 6.95879 | 838 ft | 212 kts | 32° |
| 2026-05-08 15:19 | 5.04429 | 6.96789 | 1570 ft | 239 kts | 49° |
| 2026-05-08 15:19 | 5.05317 | 6.98301 | 2271 ft | 269 kts | 70° |
| 2026-05-08 15:19 | 5.05975 | 7.00195 | 2898 ft | 304 kts | 74° |
| 2026-05-08 15:19 | 5.06544 | 7.02169 | 4700 ft | 286 kts | 74° |
| 2026-05-08 15:20 | 5.07107 | 7.04040 | 6485 ft | 274 kts | 73° |
| 2026-05-08 15:20 | 5.07673 | 7.05836 | 8043 ft | 267 kts | 72° |
| 2026-05-08 15:20 | 5.08243 | 7.07603 | 9378 ft | 266 kts | 71° |
| 2026-05-08 15:20 | 5.08841 | 7.09367 | 10487 ft | 270 kts | 70° |
| 2026-05-08 15:21 | 5.09465 | 7.11160 | 11464 ft | 275 kts | 70° |
| 2026-05-08 15:21 | 5.10094 | 7.12966 | 12412 ft | 281 kts | 71° |
| 2026-05-08 15:21 | 5.10738 | 7.14838 | 13344 ft | 287 kts | 71° |
| 2026-05-08 15:21 | 5.11395 | 7.16750 | 14192 ft | 292 kts | 71° |
| 2026-05-08 15:22 | 5.12063 | 7.18698 | 14987 ft | 298 kts | 71° |
| 2026-05-08 15:22 | 5.12742 | 7.20683 | 15764 ft | 304 kts | 71° |
| 2026-05-08 15:22 | 5.13417 | 7.22708 | 16543 ft | 310 kts | 72° |
| 2026-05-08 15:22 | 5.14405 | 7.24636 | 17259 ft | 316 kts | 49° |
| 2026-05-08 15:23 | 5.16239 | 7.25871 | 17958 ft | 326 kts | 20° |
| 2026-05-08 15:23 | 5.18486 | 7.26328 | 18618 ft | 333 kts | 12° |
| 2026-05-08 15:23 | 5.20658 | 7.27087 | 19234 ft | 332 kts | 28° |
| 2026-05-08 15:23 | 5.22086 | 7.27667 | 19664 ft | 338 kts | 16° |
| 2026-05-08 15:24 | 5.24434 | 7.27980 | 20281 ft | 345 kts | 6° |
| 2026-05-08 15:24 | 5.26850 | 7.28041 | 20949 ft | 349 kts | 3° |
| 2026-05-08 15:24 | 5.29296 | 7.28037 | 21585 ft | 354 kts | 2° |
| 2026-05-08 15:24 | 5.31769 | 7.28034 | 22246 ft | 357 kts | 3° |
| 2026-05-08 15:25 | 5.34267 | 7.28061 | 22880 ft | 361 kts | 4° |
| 2026-05-08 15:25 | 5.36787 | 7.28115 | 23495 ft | 365 kts | 4° |
| 2026-05-08 15:25 | 5.39336 | 7.28201 | 24028 ft | 367 kts | 5° |
| 2026-05-08 15:25 | 5.41897 | 7.28296 | 24588 ft | 369 kts | 5° |
| 2026-05-08 15:26 | 5.44473 | 7.28392 | 25131 ft | 371 kts | 5° |
| 2026-05-08 15:26 | 5.47112 | 7.28490 | 25226 ft | 390 kts | 5° |
| 2026-05-08 15:26 | 5.49887 | 7.28599 | 25253 ft | 408 kts | 5° |
| 2026-05-08 15:26 | 5.52788 | 7.28721 | 25289 ft | 426 kts | 5° |
| 2026-05-08 15:27 | 5.55774 | 7.28849 | 25719 ft | 431 kts | 5° |
| 2026-05-08 15:27 | 5.58787 | 7.28954 | 26248 ft | 435 kts | 5° |
| 2026-05-08 15:27 | 5.61834 | 7.29037 | 26575 ft | 444 kts | 4° |
| 2026-05-08 15:27 | 5.64967 | 7.29114 | 26725 ft | 456 kts | 4° |
| 2026-05-08 15:28 | 5.68176 | 7.29195 | 26796 ft | 469 kts | 4° |
| 2026-05-08 15:28 | 5.71491 | 7.29306 | 26834 ft | 476 kts | 5° |
| 2026-05-08 15:28 | 5.74756 | 7.29436 | 26840 ft | 465 kts | 5° |
| 2026-05-08 15:28 | 5.77972 | 7.29611 | 26831 ft | 460 kts | 9° |
| 2026-05-08 15:29 | 5.81083 | 7.30262 | 26829 ft | 455 kts | 18° |
| 2026-05-08 15:29 | 5.84066 | 7.31276 | 26834 ft | 451 kts | 24° |
| 2026-05-08 15:29 | 5.86932 | 7.32544 | 26832 ft | 449 kts | 27° |
| 2026-05-08 15:29 | 5.89739 | 7.33904 | 26831 ft | 448 kts | 28° |
| 2026-05-08 15:30 | 5.92547 | 7.35275 | 26827 ft | 448 kts | 28° |
| 2026-05-08 15:30 | 5.95363 | 7.36620 | 26826 ft | 448 kts | 27° |
| 2026-05-08 15:30 | 5.98196 | 7.37940 | 26827 ft | 450 kts | 26° |
| 2026-05-08 15:30 | 6.01067 | 7.39206 | 26824 ft | 451 kts | 25° |
| 2026-05-08 15:31 | 6.03951 | 7.40456 | 26827 ft | 452 kts | 26° |
| 2026-05-08 15:31 | 6.06825 | 7.41740 | 26834 ft | 453 kts | 27° |
| 2026-05-08 15:31 | 6.09693 | 7.43063 | 26832 ft | 453 kts | 27° |
| 2026-05-08 15:31 | 6.12559 | 7.44395 | 26830 ft | 454 kts | 27° |
| 2026-05-08 15:32 | 6.15413 | 7.45668 | 26829 ft | 455 kts | 25° |
| 2026-05-08 15:32 | 6.18325 | 7.46928 | 26835 ft | 456 kts | 25° |
| 2026-05-08 15:32 | 6.21242 | 7.48188 | 26833 ft | 456 kts | 25° |
| 2026-05-08 15:32 | 6.24158 | 7.49446 | 26832 ft | 457 kts | 25° |
| 2026-05-08 15:33 | 6.27073 | 7.50721 | 26829 ft | 457 kts | 26° |
| 2026-05-08 15:33 | 6.29980 | 7.52020 | 26824 ft | 457 kts | 26° |
| 2026-05-08 15:33 | 6.32880 | 7.53326 | 26821 ft | 457 kts | 26° |
| 2026-05-08 15:33 | 6.35787 | 7.54641 | 26823 ft | 457 kts | 26° |
| 2026-05-08 15:34 | 6.38684 | 7.55954 | 26822 ft | 458 kts | 26° |
| 2026-05-08 15:34 | 6.41592 | 7.57264 | 26820 ft | 458 kts | 26° |
| 2026-05-08 15:34 | 6.44510 | 7.58550 | 26821 ft | 458 kts | 26° |
| 2026-05-08 15:34 | 6.47461 | 7.59738 | 26818 ft | 460 kts | 18° |
| 2026-05-08 15:35 | 6.50625 | 7.60302 | 26824 ft | 463 kts | 8° |
| 2026-05-08 15:35 | 6.53851 | 7.60403 | 26825 ft | 466 kts | 1° |
| 2026-05-08 15:35 | 6.57093 | 7.60275 | 26832 ft | 466 kts | 0° |
| 2026-05-08 15:35 | 6.60337 | 7.60124 | 26846 ft | 467 kts | 0° |
| 2026-05-08 15:36 | 6.63582 | 7.60026 | 26833 ft | 467 kts | 1° |
| 2026-05-08 15:36 | 6.66832 | 7.59993 | 26829 ft | 467 kts | 3° |
| 2026-05-08 15:36 | 6.70076 | 7.60001 | 26823 ft | 466 kts | 3° |
| 2026-05-08 15:36 | 6.73278 | 7.60024 | 26823 ft | 466 kts | 3° |
| 2026-05-08 15:37 | 6.76559 | 7.60056 | 26827 ft | 466 kts | 3° |
| 2026-05-08 15:37 | 6.79807 | 7.60055 | 26833 ft | 467 kts | 2° |
| 2026-05-08 15:37 | 6.83066 | 7.60010 | 26828 ft | 467 kts | 2° |
| 2026-05-08 15:37 | 6.86308 | 7.59975 | 26827 ft | 467 kts | 2° |
| 2026-05-08 15:38 | 6.89567 | 7.59950 | 26826 ft | 467 kts | 2° |
| 2026-05-08 15:38 | 6.92773 | 7.59930 | 26820 ft | 467 kts | 2° |
| 2026-05-08 15:38 | 6.96057 | 7.59915 | 26827 ft | 467 kts | 2° |
| 2026-05-08 15:38 | 6.99311 | 7.59918 | 26828 ft | 467 kts | 2° |
| 2026-05-08 15:39 | 7.02562 | 7.59943 | 26825 ft | 467 kts | 4° |
| 2026-05-08 15:39 | 7.05759 | 7.59997 | 26821 ft | 467 kts | 3° |
| 2026-05-08 15:39 | 7.09058 | 7.59963 | 26820 ft | 467 kts | 1° |
| 2026-05-08 15:39 | 7.12308 | 7.59897 | 26821 ft | 467 kts | 1° |
| 2026-05-08 15:40 | 7.15560 | 7.59837 | 26818 ft | 467 kts | 2° |
| 2026-05-08 15:40 | 7.18763 | 7.59805 | 26824 ft | 467 kts | 2° |
| 2026-05-08 15:40 | 7.22060 | 7.59785 | 26822 ft | 467 kts | 2° |
| 2026-05-08 15:40 | 7.25268 | 7.59771 | 26819 ft | 467 kts | 2° |
| 2026-05-08 15:41 | 7.28518 | 7.59760 | 26818 ft | 467 kts | 2° |
| 2026-05-08 15:41 | 7.31757 | 7.59750 | 26813 ft | 467 kts | 2° |
| 2026-05-08 15:41 | 7.35019 | 7.59742 | 26814 ft | 467 kts | 2° |
| 2026-05-08 15:41 | 7.38264 | 7.59735 | 26812 ft | 467 kts | 2° |
| 2026-05-08 15:42 | 7.41517 | 7.59729 | 26813 ft | 467 kts | 2° |
| 2026-05-08 15:42 | 7.44765 | 7.59721 | 26813 ft | 467 kts | 2° |
| 2026-05-08 15:42 | 7.48019 | 7.59688 | 26816 ft | 468 kts | 2° |
| 2026-05-08 15:42 | 7.51269 | 7.59646 | 26815 ft | 467 kts | 2° |
| 2026-05-08 15:43 | 7.54523 | 7.59680 | 26811 ft | 467 kts | 4° |
| 2026-05-08 15:43 | 7.57771 | 7.59753 | 26814 ft | 467 kts | 3° |
| 2026-05-08 15:43 | 7.61026 | 7.59739 | 26806 ft | 468 kts | 2° |
| 2026-05-08 15:43 | 7.64278 | 7.59677 | 26805 ft | 468 kts | 1° |
| 2026-05-08 15:44 | 7.67537 | 7.59621 | 26808 ft | 468 kts | 2° |
| 2026-05-08 15:44 | 7.70789 | 7.59593 | 26805 ft | 468 kts | 2° |
| 2026-05-08 15:44 | 7.74044 | 7.59582 | 26803 ft | 468 kts | 2° |
| 2026-05-08 15:44 | 7.77303 | 7.59579 | 26802 ft | 468 kts | 2° |
| 2026-05-08 15:45 | 7.80558 | 7.59579 | 26803 ft | 468 kts | 2° |
| 2026-05-08 15:45 | 7.83817 | 7.59581 | 26796 ft | 468 kts | 2° |
| 2026-05-08 15:45 | 7.87073 | 7.59585 | 26789 ft | 468 kts | 2° |
| 2026-05-08 15:45 | 7.90335 | 7.59587 | 26792 ft | 468 kts | 2° |
| 2026-05-08 15:46 | 7.93594 | 7.59562 | 26790 ft | 469 kts | 2° |
| 2026-05-08 15:46 | 7.96855 | 7.59523 | 26791 ft | 469 kts | 2° |
| 2026-05-08 15:46 | 8.00117 | 7.59483 | 26784 ft | 469 kts | 2° |
| 2026-05-08 15:46 | 8.03376 | 7.59469 | 26788 ft | 469 kts | 2° |
| 2026-05-08 15:47 | 8.06637 | 7.59480 | 26784 ft | 468 kts | 3° |
| 2026-05-08 15:47 | 8.09895 | 7.59522 | 26780 ft | 468 kts | 4° |
| 2026-05-08 15:47 | 8.13153 | 7.59567 | 26778 ft | 469 kts | 2° |
| 2026-05-08 15:47 | 8.16419 | 7.59532 | 26777 ft | 469 kts | 1° |
| 2026-05-08 15:48 | 8.22943 | 7.59406 | 26777 ft | 469 kts | 2° |
| 2026-05-08 15:48 | 8.26199 | 7.59276 | 26771 ft | 471 kts | 356° |
| 2026-05-08 15:48 | 8.29390 | 7.58652 | 26341 ft | 474 kts | 347° |
| 2026-05-08 15:49 | 8.32532 | 7.57637 | 25885 ft | 473 kts | 343° |
| 2026-05-08 15:49 | 8.35661 | 7.56523 | 25243 ft | 469 kts | 343° |
| 2026-05-08 15:49 | 8.38688 | 7.55473 | 24672 ft | 465 kts | 343° |
| 2026-05-08 15:49 | 8.41753 | 7.54477 | 24039 ft | 460 kts | 345° |
| 2026-05-08 15:50 | 8.44805 | 7.53545 | 23460 ft | 456 kts | 345° |
| 2026-05-08 15:50 | 8.47838 | 7.52638 | 22825 ft | 452 kts | 345° |
| 2026-05-08 15:50 | 8.50835 | 7.51727 | 22232 ft | 447 kts | 345° |
| 2026-05-08 15:50 | 8.53794 | 7.50816 | 21668 ft | 443 kts | 345° |
| 2026-05-08 15:51 | 8.56727 | 7.49908 | 21142 ft | 439 kts | 345° |
| 2026-05-08 15:51 | 8.59629 | 7.49005 | 20632 ft | 435 kts | 345° |
| 2026-05-08 15:51 | 8.62507 | 7.48122 | 20106 ft | 430 kts | 345° |
| 2026-05-08 15:51 | 8.65361 | 7.47243 | 19526 ft | 426 kts | 345° |
| 2026-05-08 15:52 | 8.68182 | 7.46375 | 18971 ft | 422 kts | 345° |
| 2026-05-08 15:52 | 8.70976 | 7.45514 | 18439 ft | 418 kts | 345° |
| 2026-05-08 15:52 | 8.73745 | 7.44662 | 17897 ft | 414 kts | 345° |
| 2026-05-08 15:52 | 8.76487 | 7.43821 | 17116 ft | 409 kts | 345° |
| 2026-05-08 15:53 | 8.79195 | 7.43001 | 16445 ft | 404 kts | 346° |
| 2026-05-08 15:53 | 8.81870 | 7.42190 | 15779 ft | 399 kts | 346° |
| 2026-05-08 15:53 | 8.84523 | 7.41382 | 15079 ft | 396 kts | 346° |
| 2026-05-08 15:53 | 8.87137 | 7.40577 | 14504 ft | 390 kts | 346° |
| 2026-05-08 15:54 | 8.89722 | 7.39772 | 13904 ft | 387 kts | 346° |
| 2026-05-08 15:54 | 8.92276 | 7.38974 | 13287 ft | 382 kts | 347° |
| 2026-05-08 15:54 | 8.94848 | 7.38598 | 12672 ft | 367 kts | 1° |
| 2026-05-08 15:54 | 8.97327 | 7.38548 | 12292 ft | 344 kts | 3° |
| 2026-05-08 15:55 | 8.99641 | 7.38560 | 11758 ft | 322 kts | 5° |
| 2026-05-08 15:55 | 9.03779 | 7.39032 | 10710 ft | 279 kts | 30° |
| 2026-05-08 15:55 | 9.05400 | 7.40004 | 10228 ft | 264 kts | 36° |
| 2026-05-08 15:56 | 9.06908 | 7.40996 | 9767 ft | 253 kts | 36° |
| 2026-05-08 15:56 | 9.08357 | 7.41976 | 9130 ft | 249 kts | 37° |
| 2026-05-08 15:56 | 9.09776 | 7.42985 | 8407 ft | 249 kts | 38° |
| 2026-05-08 15:56 | 9.11160 | 7.43988 | 7903 ft | 241 kts | 33° |
| 2026-05-08 15:57 | 9.12782 | 7.44375 | 7203 ft | 248 kts | 355° |
| 2026-05-08 15:57 | 9.14355 | 7.43667 | 6554 ft | 254 kts | 318° |
| 2026-05-08 15:57 | 9.15388 | 7.42230 | 5957 ft | 253 kts | 299° |
| 2026-05-08 15:57 | 9.16134 | 7.40619 | 5340 ft | 252 kts | 294° |
| 2026-05-08 15:58 | 9.16799 | 7.38987 | 4770 ft | 248 kts | 292° |
| 2026-05-08 15:58 | 9.17179 | 7.37363 | 4381 ft | 234 kts | 263° |
| 2026-05-08 15:58 | 9.16553 | 7.35940 | 4148 ft | 214 kts | 221° |
| 2026-05-08 15:58 | 9.15308 | 7.35263 | 3930 ft | 203 kts | 200° |
| 2026-05-08 15:59 | 9.14003 | 7.34754 | 3731 ft | 201 kts | 201° |
| 2026-05-08 15:59 | 9.12719 | 7.34205 | 3491 ft | 200 kts | 204° |
| 2026-05-08 15:59 | 9.11492 | 7.33603 | 3272 ft | 193 kts | 206° |
| 2026-05-08 15:59 | 9.10321 | 7.32984 | 3031 ft | 187 kts | 207° |
| 2026-05-08 16:00 | 9.09204 | 7.32330 | 2773 ft | 183 kts | 212° |
| 2026-05-08 16:00 | 9.08167 | 7.31638 | 2558 ft | 170 kts | 214° |
| 2026-05-08 16:00 | 9.07241 | 7.30987 | 2337 ft | 155 kts | 214° |
| 2026-05-08 16:00 | 9.06386 | 7.30375 | 2124 ft | 148 kts | 215° |
| 2026-05-08 16:01 | 9.05543 | 7.29770 | 1934 ft | 149 kts | 215° |
| 2026-05-08 16:01 | 9.04705 | 7.29170 | 1771 ft | 151 kts | 215° |
| 2026-05-08 16:01 | 9.03852 | 7.28557 | 1609 ft | 149 kts | 214° |
| 2026-05-08 16:01 | 9.02998 | 7.27957 | 1415 ft | 150 kts | 214° |
| 2026-05-08 16:02 | 9.02140 | 7.27350 | 1215 ft | 148 kts | 215° |
| 2026-05-08 16:02 | 9.01361 | 7.26797 | 1120 ft | 121 kts | 214° |
| 2026-05-08 16:02 | 9.00836 | 7.26426 | 1106 ft | 57 kts | 215° |
| 2026-05-08 16:02 | 9.00677 | 7.26397 | 1107 ft | 20 kts | 117° |
| 2026-05-08 16:03 | 9.00606 | 7.26510 | 1108 ft | 18 kts | 126° |
| 2026-05-08 16:03 | 9.00532 | 7.26592 | 1117 ft | 14 kts | 141° |
| 2026-05-08 16:03 | 9.00453 | 7.26641 | 1110 ft | 12 kts | 150° |
| 2026-05-08 16:03 | 9.00381 | 7.26684 | 1116 ft | 12 kts | 149° |
| 2026-05-08 16:04 | 9.00333 | 7.26742 | 1118 ft | 11 kts | 91° |
| 2026-05-08 16:04 | 9.00363 | 7.26809 | 1121 ft | 11 kts | 62° |
| 2026-05-08 16:04 | 9.00347 | 7.26873 | 1121 ft | 11 kts | 145° |
| 2026-05-08 16:04 | 9.00323 | 7.26924 | 1121 ft | 9 kts | 42° |
| 2026-05-08 16:05 | 9.00360 | 7.26972 | 1114 ft | 0 kts | 60° |